Time;durP1;ratioP1;P1;durP2;ratioP2;P2;SDS_P1;SDS_P2;PMS_P1;PMS_P2;Temp;Humidity;BMP_temperature;BMP_pressure;BME280_temperature;BME280_humidity;BME280_pressure;Samples;Min_cycle;Max_cycle;Signal;HPM_P1;HPM_P2
2020/12/30 00:00:15;;;;;;;11.00;5.32;;;1.90;99.90;;;;;;5085425;28;20451;-69
2020/12/30 00:02:42;;;;;;;8.20;4.57;;;1.90;99.90;;;;;;5092873;28;20493;-68
2020/12/30 00:05:10;;;;;;;9.93;4.80;;;1.90;99.90;;;;;;5079953;28;20058;-68
2020/12/30 00:07:40;;;;;;;10.57;4.93;;;1.90;99.90;;;;;;5090715;28;20040;-68
2020/12/30 00:10:10;;;;;;;8.75;4.70;;;2.00;99.90;;;;;;5086494;28;20091;-69
2020/12/30 00:12:38;;;;;;;9.48;4.95;;;1.90;99.90;;;;;;5082903;28;20048;-68
2020/12/30 00:15:06;;;;;;;7.88;4.47;;;1.90;99.90;;;;;;5092838;28;20044;-68
2020/12/30 00:17:33;;;;;;;8.77;4.70;;;1.90;99.90;;;;;;5085176;28;20070;-68
2020/12/30 00:20:00;;;;;;;17.02;7.10;;;2.00;99.90;;;;;;5092486;28;20066;-68
2020/12/30 00:22:26;;;;;;;20.63;9.90;;;2.00;99.90;;;;;;5074562;28;20058;-68
2020/12/30 00:24:52;;;;;;;10.25;5.03;;;2.00;99.90;;;;;;5092009;28;20083;-68
2020/12/30 00:27:19;;;;;;;10.13;4.88;;;2.00;99.90;;;;;;5092510;28;20040;-68
2020/12/30 00:29:45;;;;;;;8.82;4.50;;;2.00;99.90;;;;;;5100393;28;20496;-68
2020/12/30 00:32:12;;;;;;;9.80;4.95;;;2.10;99.90;;;;;;5092246;28;20044;-68
2020/12/30 00:34:41;;;;;;;8.98;4.90;;;2.00;99.90;;;;;;5070497;28;20137;-67
2020/12/30 00:37:09;;;;;;;10.52;5.07;;;2.10;99.90;;;;;;5072791;28;20119;-67
2020/12/30 00:39:35;;;;;;;9.63;5.88;;;2.10;99.90;;;;;;5092166;28;20104;-68
2020/12/30 00:42:02;;;;;;;7.82;4.72;;;2.00;99.90;;;;;;5088845;28;20048;-68
2020/12/30 00:44:28;;;;;;;9.15;4.53;;;2.00;99.90;;;;;;5084512;28;20048;-68
2020/12/30 00:46:57;;;;;;;7.60;4.05;;;2.00;99.90;;;;;;5091818;28;20056;-68
2020/12/30 00:49:24;;;;;;;6.65;4.57;;;2.00;99.90;;;;;;5084685;28;20055;-68
2020/12/30 00:51:55;;;;;;;9.88;4.68;;;2.10;99.90;;;;;;5091136;28;20048;-68
2020/12/30 00:54:22;;;;;;;10.10;4.78;;;2.00;99.90;;;;;;5091794;28;20086;-68
2020/12/30 00:56:50;;;;;;;8.77;4.68;;;2.00;99.90;;;;;;5090717;28;20044;-67
2020/12/30 00:59:18;;;;;;;8.10;4.45;;;2.00;99.90;;;;;;5091451;28;20059;-67
2020/12/30 01:01:50;;;;;;;7.32;3.90;;;2.00;99.90;;;;;;5091031;28;20044;-67
2020/12/30 01:04:20;;;;;;;8.73;4.80;;;2.00;99.90;;;;;;5090899;28;20052;-67
2020/12/30 01:06:52;;;;;;;7.60;4.35;;;2.00;99.90;;;;;;5090705;28;20457;-67
2020/12/30 01:09:21;;;;;;;8.77;4.45;;;1.90;99.90;;;;;;5104621;28;20047;-67
2020/12/30 01:11:48;;;;;;;15.02;4.82;;;1.90;99.90;;;;;;5090501;28;20051;-68
2020/12/30 01:14:14;;;;;;;9.80;4.78;;;1.90;99.90;;;;;;5091710;28;20070;-68
2020/12/30 01:16:46;;;;;;;10.55;4.70;;;1.90;99.90;;;;;;5091605;28;20055;-68
2020/12/30 01:19:13;;;;;;;7.35;3.80;;;1.90;99.90;;;;;;5091958;28;20486;-69
2020/12/30 01:21:40;;;;;;;6.38;3.88;;;1.90;99.90;;;;;;5091290;28;20048;-69
2020/12/30 01:24:07;;;;;;;7.97;4.30;;;1.90;99.90;;;;;;5092046;28;20406;-68
2020/12/30 01:26:35;;;;;;;6.95;4.22;;;1.90;99.90;;;;;;5091600;28;20492;-68
2020/12/30 01:29:03;;;;;;;9.60;4.72;;;1.80;99.90;;;;;;5088240;28;20247;-68
2020/12/30 01:31:31;;;;;;;9.32;4.93;;;1.90;99.90;;;;;;5071409;28;20055;-68
2020/12/30 01:33:59;;;;;;;7.53;4.10;;;1.80;99.90;;;;;;5072621;28;20048;-68
2020/12/30 01:36:25;;;;;;;8.32;4.65;;;1.80;99.90;;;;;;5072848;28;20040;-68
2020/12/30 01:38:53;;;;;;;6.63;3.92;;;1.80;99.90;;;;;;5091908;28;20425;-68
2020/12/30 01:41:21;;;;;;;9.02;4.68;;;1.80;99.90;;;;;;5091205;28;20405;-68
2020/12/30 01:44:00;;;;;;;7.40;4.72;;;1.80;99.90;;;;;;5091244;28;20098;-68
2020/12/30 01:46:37;;;;;;;9.65;4.55;;;1.80;99.90;;;;;;5071376;28;20055;-68
2020/12/30 01:49:07;;;;;;;6.80;4.25;;;1.80;99.90;;;;;;5077493;28;20044;-68
2020/12/30 01:51:37;;;;;;;7.53;4.18;;;1.80;99.90;;;;;;5088973;28;20130;-68
2020/12/30 01:54:04;;;;;;;7.13;4.10;;;1.80;99.90;;;;;;5076554;28;20081;-68
2020/12/30 01:56:32;;;;;;;7.80;4.22;;;1.80;99.90;;;;;;5081648;28;20584;-68
2020/12/30 01:59:05;;;;;;;6.38;3.72;;;1.80;99.90;;;;;;5087120;28;20115;-68
2020/12/30 02:01:35;;;;;;;6.93;4.00;;;1.90;99.90;;;;;;5086903;28;20047;-68
2020/12/30 02:04:06;;;;;;;15.20;4.35;;;1.90;99.90;;;;;;5086598;28;20454;-68
2020/12/30 02:06:34;;;;;;;6.95;3.83;;;1.90;99.90;;;;;;5069583;28;20617;-68
2020/12/30 02:09:03;;;;;;;6.70;3.83;;;2.00;99.90;;;;;;5089783;28;20055;-68
2020/12/30 02:11:30;;;;;;;7.00;4.38;;;2.00;99.90;;;;;;5087184;28;20043;-68
2020/12/30 02:14:11;;;;;;;8.82;4.45;;;2.10;99.90;;;;;;5085322;28;20047;-68
2020/12/30 02:16:49;;;;;;;7.20;4.43;;;2.00;99.90;;;;;;5100428;28;20517;-68
2020/12/30 02:19:17;;;;;;;9.32;4.20;;;2.10;99.90;;;;;;5090268;28;20052;-68
2020/12/30 02:21:43;;;;;;;8.93;4.53;;;2.10;99.90;;;;;;5089829;28;20059;-68
2020/12/30 02:24:35;;;;;;;7.05;4.20;;;2.10;99.90;;;;;;5090948;28;20046;-68
2020/12/30 02:27:03;;;;;;;9.98;4.43;;;2.10;99.90;;;;;;5074706;28;20056;-68
2020/12/30 02:29:31;;;;;;;7.95;4.68;;;2.10;99.90;;;;;;5089972;28;20040;-68
2020/12/30 02:31:59;;;;;;;7.07;4.40;;;2.10;99.90;;;;;;5089663;28;20136;-68
2020/12/30 02:34:26;;;;;;;7.88;4.22;;;2.10;99.90;;;;;;5090752;28;20052;-68
2020/12/30 02:36:53;;;;;;;8.88;4.10;;;2.10;99.90;;;;;;5075455;28;20052;-68
2020/12/30 02:39:20;;;;;;;6.93;4.20;;;2.10;99.90;;;;;;5084774;28;20052;-68
2020/12/30 02:41:48;;;;;;;10.27;4.03;;;2.10;99.90;;;;;;5084668;28;20429;-68
2020/12/30 02:44:15;;;;;;;9.60;4.50;;;2.00;99.90;;;;;;5090989;28;20052;-68
2020/12/30 02:46:42;;;;;;;6.57;4.18;;;2.00;99.90;;;;;;5069573;28;22257;-68
2020/12/30 02:49:08;;;;;;;7.72;4.30;;;2.00;99.90;;;;;;5090136;28;20489;-68
2020/12/30 02:51:41;;;;;;;8.95;4.63;;;1.90;99.90;;;;;;5089548;28;20539;-68
2020/12/30 02:54:08;;;;;;;9.05;4.13;;;1.80;99.90;;;;;;5089600;28;20044;-68
2020/12/30 02:56:35;;;;;;;8.75;4.60;;;1.70;99.90;;;;;;5090055;28;20040;-68
2020/12/30 02:59:03;;;;;;;9.02;4.40;;;1.60;99.90;;;;;;5090189;28;20046;-68
2020/12/30 03:01:29;;;;;;;10.45;4.80;;;1.50;99.90;;;;;;5090298;28;20044;-68
2020/12/30 03:03:56;;;;;;;7.32;4.82;;;1.40;99.90;;;;;;5092859;28;20470;-68
2020/12/30 03:06:24;;;;;;;10.82;5.53;;;1.40;99.90;;;;;;5093449;28;20052;-68
2020/12/30 03:08:52;;;;;;;8.98;5.00;;;1.40;99.90;;;;;;5093006;28;20131;-68
2020/12/30 03:11:20;;;;;;;11.07;4.95;;;1.30;99.90;;;;;;5092895;28;20046;-68
2020/12/30 03:13:47;;;;;;;8.95;5.20;;;1.30;99.90;;;;;;5092905;28;20046;-68
2020/12/30 03:16:13;;;;;;;10.23;5.30;;;1.20;99.90;;;;;;5093959;28;20044;-68
2020/12/30 03:18:39;;;;;;;9.75;5.70;;;1.20;99.90;;;;;;5092637;28;20048;-68
2020/12/30 03:21:06;;;;;;;16.02;5.75;;;1.10;99.90;;;;;;5074350;28;20417;-68
2020/12/30 03:23:32;;;;;;;10.27;5.55;;;1.10;99.90;;;;;;5093505;28;20416;-68
2020/12/30 03:25:59;;;;;;;8.82;5.47;;;1.20;99.90;;;;;;5071933;28;20498;-68
2020/12/30 03:28:25;;;;;;;8.57;5.90;;;1.10;99.90;;;;;;5091749;28;20414;-68
2020/12/30 03:30:51;;;;;;;11.07;6.45;;;1.10;99.90;;;;;;5092223;28;20046;-68
2020/12/30 03:33:18;;;;;;;9.57;5.88;;;1.10;99.90;;;;;;5093227;28;20044;-68
2020/12/30 03:35:44;;;;;;;12.90;5.88;;;1.00;99.90;;;;;;5093709;28;20044;-68
2020/12/30 03:38:11;;;;;;;9.63;5.95;;;1.00;99.90;;;;;;5084742;28;20048;-68
2020/12/30 03:40:38;;;;;;;9.80;6.18;;;1.00;99.90;;;;;;5092938;28;20505;-68
2020/12/30 03:43:04;;;;;;;11.55;6.32;;;0.80;99.90;;;;;;5091166;28;20497;-68
2020/12/30 03:45:31;;;;;;;11.50;5.90;;;0.80;99.90;;;;;;5093310;28;20055;-68
2020/12/30 03:47:58;;;;;;;9.50;5.95;;;0.70;99.90;;;;;;5092146;28;20044;-68
2020/12/30 03:50:25;;;;;;;9.93;5.63;;;0.60;99.90;;;;;;5092130;28;20482;-68
2020/12/30 03:52:52;;;;;;;8.90;5.53;;;0.50;99.90;;;;;;5073151;28;20052;-67
2020/12/30 03:55:18;;;;;;;8.75;5.57;;;0.40;99.90;;;;;;5091536;28;20282;-68
2020/12/30 03:57:45;;;;;;;9.55;6.20;;;0.40;99.90;;;;;;5091314;28;20048;-68
2020/12/30 04:00:11;;;;;;;9.15;6.03;;;0.30;99.90;;;;;;5092340;28;20048;-68
2020/12/30 04:02:37;;;;;;;10.20;5.93;;;0.30;99.90;;;;;;5092289;28;20358;-68
2020/12/30 04:05:04;;;;;;;11.55;6.72;;;0.30;99.90;;;;;;5093026;28;20453;-68
2020/12/30 04:07:30;;;;;;;11.48;6.25;;;0.30;99.90;;;;;;5089200;28;20050;-68
2020/12/30 04:09:57;;;;;;;10.52;6.78;;;0.30;99.90;;;;;;5092991;28;20414;-67
2020/12/30 04:12:23;;;;;;;10.02;6.32;;;0.30;99.90;;;;;;5073052;28;20044;-68
2020/12/30 04:14:50;;;;;;;11.23;5.90;;;0.20;99.90;;;;;;5092210;28;20050;-67
2020/12/30 04:17:16;;;;;;;11.68;6.75;;;0.20;99.90;;;;;;5090829;28;20068;-68
2020/12/30 04:19:43;;;;;;;10.07;6.03;;;0.20;99.90;;;;;;5091645;28;20055;-67
2020/12/30 04:22:09;;;;;;;10.88;6.45;;;0.10;99.90;;;;;;5087061;28;20048;-68
2020/12/30 04:24:36;;;;;;;11.93;6.95;;;0.10;99.90;;;;;;5090606;28;20051;-68
2020/12/30 04:27:02;;;;;;;12.40;6.53;;;0.10;99.90;;;;;;5090927;28;20044;-68
2020/12/30 04:29:29;;;;;;;11.30;6.97;;;0.10;99.90;;;;;;5091963;28;20086;-68
2020/12/30 04:31:55;;;;;;;11.52;7.63;;;0.20;99.90;;;;;;5091111;28;20047;-68
2020/12/30 04:34:22;;;;;;;11.80;6.80;;;0.10;99.90;;;;;;5093108;28;20564;-68
2020/12/30 04:36:48;;;;;;;12.23;7.32;;;0.10;99.90;;;;;;5090459;28;20063;-68
2020/12/30 04:39:15;;;;;;;12.95;7.03;;;0.10;99.90;;;;;;5085716;28;20410;-68
2020/12/30 04:41:44;;;;;;;14.45;7.57;;;0.10;99.90;;;;;;5090687;28;20048;-68
2020/12/30 04:44:14;;;;;;;12.95;7.22;;;0.10;99.90;;;;;;5089559;28;20409;-68
2020/12/30 04:46:42;;;;;;;11.80;7.20;;;0.00;99.90;;;;;;5090708;28;20048;-68
2020/12/30 04:49:11;;;;;;;13.98;7.65;;;0.00;99.90;;;;;;5082793;28;20478;-68
2020/12/30 04:51:38;;;;;;;15.60;7.85;;;0.00;99.90;;;;;;5090981;28;20056;-68
2020/12/30 04:54:05;;;;;;;12.82;7.43;;;-0.10;99.90;;;;;;5090124;28;20068;-68
2020/12/30 04:56:55;;;;;;;11.27;7.40;;;-0.10;99.90;;;;;;5091512;28;20048;-68
2020/12/30 04:59:25;;;;;;;14.88;7.45;;;-0.10;99.90;;;;;;5074303;28;20044;-68
2020/12/30 05:02:08;;;;;;;12.77;7.78;;;-0.20;99.90;;;;;;5091788;28;20052;-68
2020/12/30 05:04:37;;;;;;;11.85;7.43;;;-0.20;99.90;;;;;;5091959;28;20044;-68
2020/12/30 05:07:11;;;;;;;12.35;7.40;;;-0.20;99.90;;;;;;5090308;28;20044;-68
2020/12/30 05:09:40;;;;;;;13.77;7.28;;;-0.20;99.90;;;;;;5074371;28;20210;-68
2020/12/30 05:12:18;;;;;;;11.73;6.68;;;-0.20;99.90;;;;;;5072691;28;20044;-68
2020/12/30 05:14:45;;;;;;;14.45;7.57;;;-0.30;99.90;;;;;;5080188;28;20044;-68
2020/12/30 05:17:13;;;;;;;13.85;8.00;;;-0.30;99.90;;;;;;5090116;28;20059;-68
2020/12/30 05:19:41;;;;;;;11.68;7.93;;;-0.30;99.90;;;;;;5083575;28;20078;-68
2020/12/30 05:22:14;;;;;;;13.27;8.27;;;-0.30;99.90;;;;;;5091473;28;20084;-68
2020/12/30 05:24:43;;;;;;;14.82;8.25;;;-0.30;99.90;;;;;;5090501;28;20047;-68
2020/12/30 05:27:11;;;;;;;14.23;8.30;;;-0.20;99.90;;;;;;5089655;28;20054;-68
2020/12/30 05:29:41;;;;;;;14.13;8.27;;;-0.10;99.90;;;;;;5073225;28;20086;-68
2020/12/30 05:32:07;;;;;;;15.70;9.40;;;-0.10;99.90;;;;;;5090740;28;20048;-68
2020/12/30 05:34:34;;;;;;;14.13;8.85;;;0.00;99.90;;;;;;5092038;28;20054;-68
2020/12/30 05:37:01;;;;;;;16.50;9.65;;;0.10;99.90;;;;;;5091861;28;20414;-68
2020/12/30 05:39:33;;;;;;;17.48;9.68;;;0.20;99.90;;;;;;5091350;28;20490;-68
2020/12/30 05:42:19;;;;;;;16.40;10.63;;;0.30;99.90;;;;;;5073438;28;20040;-68
2020/12/30 05:44:48;;;;;;;14.77;9.10;;;0.40;99.90;;;;;;5076862;28;20044;-68
2020/12/30 05:47:19;;;;;;;13.45;8.88;;;0.50;99.90;;;;;;5088735;28;20059;-68
2020/12/30 05:49:48;;;;;;;12.23;8.35;;;0.50;99.90;;;;;;5069716;28;20051;-68
2020/12/30 05:52:18;;;;;;;12.98;9.02;;;0.60;99.90;;;;;;5087568;28;20489;-68
2020/12/30 05:54:52;;;;;;;13.90;8.18;;;0.60;99.90;;;;;;5081766;28;20091;-67
2020/12/30 05:57:37;;;;;;;12.77;8.18;;;0.70;99.90;;;;;;5066213;28;20066;-67
2020/12/30 06:00:12;;;;;;;15.15;8.52;;;0.80;99.90;;;;;;5090742;28;20056;-67
2020/12/30 06:02:43;;;;;;;11.88;8.30;;;0.80;99.90;;;;;;5090805;28;20058;-67
2020/12/30 06:05:11;;;;;;;12.02;7.78;;;0.90;99.90;;;;;;5090541;28;20044;-68
2020/12/30 06:07:41;;;;;;;12.68;8.45;;;0.90;99.90;;;;;;5088200;28;20044;-67
2020/12/30 06:10:12;;;;;;;12.43;8.13;;;0.90;99.90;;;;;;5101640;28;20486;-68
2020/12/30 06:13:01;;;;;;;11.38;7.90;;;0.90;99.90;;;;;;5082410;28;20076;-68
2020/12/30 06:15:30;;;;;;;12.43;8.23;;;0.90;99.90;;;;;;5077698;28;20508;-68
2020/12/30 06:18:00;;;;;;;11.02;7.65;;;1.00;99.90;;;;;;5081555;28;20068;-68
2020/12/30 06:20:32;;;;;;;13.18;8.45;;;1.00;99.90;;;;;;5088151;28;20059;-68
2020/12/30 06:23:00;;;;;;;;;;;1.00;99.90;;;;;;5078230;28;20059;-68
2020/12/30 06:25:29;;;;;;;14.95;9.25;;;0.90;99.90;;;;;;5076388;28;20420;-66
2020/12/30 06:27:57;;;;;;;14.10;8.50;;;0.90;99.90;;;;;;5074405;28;20048;-67
2020/12/30 06:30:23;;;;;;;15.13;8.77;;;1.00;99.90;;;;;;5073866;28;20059;-67
2020/12/30 06:32:50;;;;;;;15.32;9.00;;;1.00;99.90;;;;;;5078604;28;20044;-68
2020/12/30 06:35:28;;;;;;;12.77;8.40;;;1.00;99.90;;;;;;5081550;28;20044;-67
2020/12/30 06:37:55;;;;;;;14.05;8.40;;;1.00;99.90;;;;;;5092238;28;20532;-67
2020/12/30 06:40:24;;;;;;;15.57;9.15;;;1.00;99.90;;;;;;5090739;28;20455;-67
2020/12/30 06:42:57;;;;;;;14.63;8.50;;;1.10;99.90;;;;;;5093316;28;20055;-67
2020/12/30 06:45:42;;;;;;;14.63;8.55;;;1.10;99.90;;;;;;5095428;28;20999;-68
2020/12/30 06:48:13;;;;;;;13.75;7.82;;;1.10;99.90;;;;;;5094325;28;20044;-67
2020/12/30 06:50:41;;;;;;;12.75;8.38;;;1.10;99.90;;;;;;5076848;28;20058;-67
2020/12/30 06:53:30;;;;;;;15.25;9.65;;;1.20;99.90;;;;;;5095025;28;20050;-67
2020/12/30 06:55:58;;;;;;;17.38;9.48;;;1.20;99.90;;;;;;5088895;28;20123;-66
2020/12/30 06:58:47;;;;;;;14.60;8.90;;;1.20;99.90;;;;;;5089281;28;20135;-66
2020/12/30 07:01:21;;;;;;;14.35;9.55;;;1.30;99.90;;;;;;5093669;28;20826;-66
2020/12/30 07:03:49;;;;;;;15.90;9.27;;;1.30;99.90;;;;;;5075900;28;20044;-67
2020/12/30 07:06:29;;;;;;;14.63;9.50;;;1.40;99.90;;;;;;5089933;28;20047;-67
2020/12/30 07:09:06;;;;;;;15.32;9.35;;;1.40;99.90;;;;;;5083044;28;20060;-66
2020/12/30 07:11:41;;;;;;;14.43;9.40;;;1.40;99.90;;;;;;5089422;28;20142;-68
2020/12/30 07:14:16;;;;;;;17.27;10.27;;;1.40;99.90;;;;;;5089597;28;20127;-67
2020/12/30 07:16:48;;;;;;;18.48;11.05;;;1.40;99.90;;;;;;5083852;28;20040;-67
2020/12/30 07:19:23;;;;;;;17.05;10.05;;;1.40;99.90;;;;;;5087960;28;20503;-67
2020/12/30 07:22:07;;;;;;;14.13;8.80;;;1.40;99.90;;;;;;5087782;28;20505;-68
2020/12/30 07:24:43;;;;;;;16.55;9.50;;;1.40;99.90;;;;;;5094556;28;20105;-67
2020/12/30 07:27:13;;;;;;;14.75;9.27;;;1.40;99.90;;;;;;5089494;28;20477;-68
2020/12/30 07:29:46;;;;;;;16.88;10.38;;;1.50;99.90;;;;;;5093087;28;20070;-67
2020/12/30 07:32:18;;;;;;;14.43;9.88;;;1.50;99.90;;;;;;5072582;28;20046;-67
2020/12/30 07:34:46;;;;;;;17.10;9.68;;;1.50;99.90;;;;;;5094305;28;20048;-67
2020/12/30 07:37:14;;;;;;;17.20;10.15;;;1.50;99.90;;;;;;5087281;28;20075;-68
2020/12/30 07:39:43;;;;;;;14.57;9.40;;;1.60;99.90;;;;;;5090449;28;20691;-68
2020/12/30 07:42:14;;;;;;;16.55;10.13;;;1.60;99.90;;;;;;5086976;28;20114;-68
2020/12/30 07:44:55;;;;;;;15.88;10.48;;;1.60;99.90;;;;;;5093034;28;20044;-68
2020/12/30 07:47:23;;;;;;;15.85;9.48;;;1.60;99.90;;;;;;5089606;28;20048;-68
2020/12/30 07:49:50;;;;;;;14.95;9.50;;;1.70;99.90;;;;;;5092746;28;20048;-67
2020/12/30 07:52:17;;;;;;;15.23;9.48;;;1.80;99.90;;;;;;5093257;28;20083;-67
2020/12/30 07:54:43;;;;;;;21.88;12.13;;;1.80;99.90;;;;;;5088885;28;20588;-68
2020/12/30 07:57:11;;;;;;;17.30;11.43;;;1.90;99.90;;;;;;5090881;28;20048;-68
2020/12/30 07:59:40;;;;;;;19.30;11.02;;;1.90;99.90;;;;;;5092723;28;20481;-68
2020/12/30 08:02:11;;;;;;;29.38;15.80;;;2.00;99.90;;;;;;5092132;28;20047;-67
2020/12/30 08:04:39;;;;;;;15.85;10.60;;;2.00;99.90;;;;;;5093853;28;20040;-68
2020/12/30 08:07:07;;;;;;;16.33;9.80;;;2.00;99.90;;;;;;5091737;28;20047;-68
2020/12/30 08:09:36;;;;;;;16.73;9.18;;;2.10;99.90;;;;;;5073265;28;20044;-67
2020/12/30 08:12:08;;;;;;;16.38;9.45;;;2.00;99.90;;;;;;5091403;28;20140;-67
2020/12/30 08:14:37;;;;;;;14.57;9.25;;;2.00;99.90;;;;;;5093421;28;20109;-67
2020/12/30 08:17:09;;;;;;;16.58;10.55;;;2.00;99.90;;;;;;5092657;28;20054;-68
2020/12/30 08:19:41;;;;;;;17.50;11.45;;;2.00;99.90;;;;;;5093093;28;20040;-67
2020/12/30 08:22:21;;;;;;;16.00;10.27;;;2.10;99.90;;;;;;5091645;28;20059;-67
2020/12/30 08:24:55;;;;;;;14.48;10.10;;;2.00;99.90;;;;;;5091561;28;20480;-67
2020/12/30 08:27:24;;;;;;;16.27;9.50;;;2.00;99.90;;;;;;5092514;28;20079;-70
2020/12/30 08:29:58;;;;;;;14.82;9.77;;;2.00;99.90;;;;;;5092578;28;20059;-71
2020/12/30 08:32:33;;;;;;;14.35;9.50;;;2.00;99.90;;;;;;5090712;28;20130;-70
2020/12/30 08:35:15;;;;;;;15.43;10.55;;;2.00;99.90;;;;;;5081055;28;20094;-69
2020/12/30 08:37:51;;;;;;;19.85;12.00;;;2.00;99.90;;;;;;5071253;28;20048;-70
2020/12/30 08:40:21;;;;;;;19.08;12.18;;;2.10;99.90;;;;;;5091765;28;20048;-70
2020/12/30 08:42:53;;;;;;;17.17;10.60;;;2.10;99.90;;;;;;5088597;28;20083;-70
2020/12/30 08:45:31;;;;;;;20.35;10.82;;;2.20;99.90;;;;;;5092312;28;20397;-69
2020/12/30 08:48:14;;;;;;;16.77;10.85;;;2.30;99.90;;;;;;5082494;28;20847;-72
2020/12/30 08:50:41;;;;;;;16.98;10.90;;;2.20;99.90;;;;;;5090497;28;20040;-69
2020/12/30 08:53:08;;;;;;;15.75;10.45;;;2.30;99.90;;;;;;5091671;28;20062;-68
2020/12/30 08:55:35;;;;;;;18.45;11.73;;;2.30;99.90;;;;;;5090938;28;20478;-70
2020/12/30 08:58:02;;;;;;;17.80;11.05;;;2.40;99.90;;;;;;5090961;28;20582;-71
2020/12/30 09:00:36;;;;;;;17.25;11.10;;;2.30;99.90;;;;;;5090586;28;20146;-70
2020/12/30 09:03:15;;;;;;;17.85;10.20;;;2.40;99.90;;;;;;5091540;28;20048;-71
2020/12/30 09:05:50;;;;;;;18.10;10.77;;;2.40;99.90;;;;;;5089924;28;20485;-68
2020/12/30 09:08:19;;;;;;;17.80;11.18;;;2.40;99.90;;;;;;5080963;28;20044;-70
2020/12/30 09:10:47;;;;;;;19.40;11.32;;;2.40;99.90;;;;;;5090515;28;20047;-71
2020/12/30 09:13:21;;;;;;;16.75;10.52;;;2.40;99.90;;;;;;5084843;28;20047;-70
2020/12/30 09:15:57;;;;;;;16.73;10.63;;;2.60;99.90;;;;;;5090677;28;20062;-70
2020/12/30 09:18:26;;;;;;;18.20;10.95;;;2.60;99.90;;;;;;5085486;28;20055;-70
2020/12/30 09:20:53;;;;;;;17.75;10.23;;;2.80;99.90;;;;;;5087946;28;20075;-71
2020/12/30 09:23:24;;;;;;;15.23;9.77;;;3.00;99.90;;;;;;5085641;28;20058;-70
2020/12/30 09:25:52;;;;;;;19.13;10.75;;;3.10;99.90;;;;;;5088355;28;20066;-70
2020/12/30 09:28:21;;;;;;;25.92;15.07;;;3.30;99.90;;;;;;5071143;28;20055;-71
2020/12/30 09:30:51;;;;;;;18.38;11.00;;;3.50;99.90;;;;;;5090889;28;20047;-70
2020/12/30 09:33:21;;;;;;;15.88;11.52;;;3.70;99.90;;;;;;5089476;28;20486;-67
2020/12/30 09:35:48;;;;;;;16.27;10.73;;;3.90;99.90;;;;;;5071606;28;20483;-68
2020/12/30 09:38:19;;;;;;;14.57;9.63;;;4.10;99.90;;;;;;5082732;28;20048;-69
2020/12/30 09:40:48;;;;;;;18.90;10.05;;;4.30;99.90;;;;;;5082546;28;20048;-68
2020/12/30 09:43:19;;;;;;;20.98;10.15;;;4.40;99.90;;;;;;5089548;28;20486;-67
2020/12/30 09:45:47;;;;;;;13.98;9.23;;;4.50;99.90;;;;;;5089304;28;20410;-68
2020/12/30 09:48:19;;;;;;;13.00;9.50;;;4.60;99.90;;;;;;5091117;28;20455;-67
2020/12/30 09:50:50;;;;;;;14.50;10.05;;;4.70;99.90;;;;;;5093323;28;20043;-67
2020/12/30 09:53:17;;;;;;;14.25;9.48;;;4.80;99.90;;;;;;5090930;28;20048;-66
2020/12/30 09:55:46;;;;;;;13.07;9.95;;;4.90;99.90;;;;;;5090790;28;20059;-67
2020/12/30 09:58:13;;;;;;;16.38;9.35;;;4.80;99.90;;;;;;5078643;28;20045;-67
2020/12/30 10:00:39;;;;;;;12.57;8.77;;;4.80;99.90;;;;;;5086092;28;20044;-66
2020/12/30 10:03:07;;;;;;;11.70;8.70;;;4.80;99.90;;;;;;5064881;28;20048;-68
2020/12/30 10:05:34;;;;;;;12.80;8.60;;;5.00;99.90;;;;;;5075012;28;20479;-67
2020/12/30 10:08:00;;;;;;;13.88;9.35;;;5.00;99.90;;;;;;5070258;28;20045;-67
2020/12/30 10:10:27;;;;;;;11.93;8.55;;;4.90;99.90;;;;;;5069161;28;20048;-67
2020/12/30 10:12:53;;;;;;;13.80;8.38;;;5.00;99.90;;;;;;5088120;28;20075;-66
2020/12/30 10:15:20;;;;;;;12.32;9.25;;;5.10;99.90;;;;;;5089742;28;20048;-67
2020/12/30 10:17:47;;;;;;;14.15;9.10;;;5.10;99.90;;;;;;5090145;28;20047;-66
2020/12/30 10:20:14;;;;;;;11.93;9.13;;;5.10;99.90;;;;;;5090199;28;20058;-67
2020/12/30 10:22:42;;;;;;;14.35;9.35;;;5.00;99.90;;;;;;5079500;28;20134;-65
2020/12/30 10:25:12;;;;;;;14.35;9.93;;;5.10;99.90;;;;;;5089901;28;20054;-66
2020/12/30 10:27:40;;;;;;;12.93;9.18;;;5.20;99.90;;;;;;5084703;28;20044;-67
2020/12/30 10:30:08;;;;;;;14.85;9.63;;;5.40;99.90;;;;;;5090247;28;20044;-67
2020/12/30 10:32:35;;;;;;;13.40;9.38;;;5.50;99.90;;;;;;5088092;28;20137;-66
2020/12/30 10:35:02;;;;;;;14.85;9.98;;;5.60;99.90;;;;;;5087678;28;20042;-66
2020/12/30 10:37:29;;;;;;;12.57;9.38;;;5.70;99.90;;;;;;5082881;28;20513;-66
2020/12/30 10:39:56;;;;;;;15.50;9.15;;;5.70;99.90;;;;;;5080018;28;20048;-67
2020/12/30 10:42:23;;;;;;;13.60;9.23;;;5.80;99.90;;;;;;5089632;28;20482;-67
2020/12/30 10:44:49;;;;;;;14.77;9.30;;;5.80;99.90;;;;;;5088624;28;20048;-66
2020/12/30 10:47:16;;;;;;;14.07;9.15;;;5.90;99.90;;;;;;5104757;28;20494;-67
2020/12/30 10:49:42;;;;;;;16.13;10.15;;;5.80;99.90;;;;;;5086478;28;20078;-67
2020/12/30 10:52:09;;;;;;;18.30;10.00;;;5.80;99.90;;;;;;5086396;28;20036;-67
2020/12/30 10:54:42;;;;;;;14.27;9.30;;;5.80;99.90;;;;;;5089156;28;20154;-66
2020/12/30 10:57:09;;;;;;;12.65;8.85;;;5.70;99.90;;;;;;5085931;28;20509;-66
2020/12/30 10:59:37;;;;;;;20.40;12.40;;;5.60;99.90;;;;;;5079248;28;20051;-66
2020/12/30 11:02:03;;;;;;;18.15;11.77;;;5.50;99.90;;;;;;5087882;28;20054;-66
2020/12/30 11:04:30;;;;;;;14.65;9.38;;;5.50;99.90;;;;;;5088880;28;20127;-66
2020/12/30 11:06:58;;;;;;;14.02;9.15;;;5.40;99.90;;;;;;5088996;28;20486;-68
2020/12/30 11:09:25;;;;;;;11.85;8.30;;;5.30;99.90;;;;;;5088635;28;20116;-68
2020/12/30 11:11:51;;;;;;;13.60;8.23;;;5.30;99.90;;;;;;5089997;28;20050;-69
2020/12/30 11:14:18;;;;;;;11.35;7.63;;;5.30;99.90;;;;;;5090055;28;20048;-66
2020/12/30 11:16:48;;;;;;;12.68;8.20;;;5.40;99.90;;;;;;5090337;28;20046;-67
2020/12/30 11:19:16;;;;;;;15.40;8.38;;;5.50;99.90;;;;;;5070872;28;20059;-65
2020/12/30 11:21:51;;;;;;;13.10;7.93;;;5.70;99.90;;;;;;5088443;28;20052;-67
2020/12/30 11:24:18;;;;;;;13.77;7.70;;;5.80;99.90;;;;;;5089885;28;20040;-67
2020/12/30 11:26:46;;;;;;;13.60;7.85;;;5.90;99.90;;;;;;5092539;28;20040;-66
2020/12/30 11:29:13;;;;;;;10.65;7.25;;;6.00;99.90;;;;;;5089311;28;20052;-66
2020/12/30 11:31:39;;;;;;;13.65;8.50;;;6.00;99.90;;;;;;5075296;28;20119;-66
2020/12/30 11:34:06;;;;;;;11.48;7.80;;;6.10;99.90;;;;;;5082875;28;20056;-66
2020/12/30 11:36:32;;;;;;;11.55;7.85;;;6.30;99.90;;;;;;5092191;28;20086;-68
2020/12/30 11:38:59;;;;;;;15.13;7.40;;;6.50;99.90;;;;;;5091902;28;20059;-68
2020/12/30 11:41:26;;;;;;;10.93;7.90;;;6.50;99.90;;;;;;5094156;28;20515;-68
2020/12/30 11:43:52;;;;;;;11.68;7.38;;;6.60;99.90;;;;;;5093361;28;20048;-69
2020/12/30 11:46:20;;;;;;;11.65;7.55;;;6.60;99.90;;;;;;5093190;28;20063;-68
2020/12/30 11:48:46;;;;;;;9.32;6.93;;;6.60;99.90;;;;;;5093749;28;20127;-70
2020/12/30 11:51:13;;;;;;;12.63;8.07;;;6.60;99.90;;;;;;5108446;28;20048;-69
2020/12/30 11:53:41;;;;;;;11.75;7.50;;;6.70;99.90;;;;;;5083405;28;20428;-69
2020/12/30 11:56:07;;;;;;;18.90;10.10;;;6.90;99.90;;;;;;5086761;28;20136;-70
2020/12/30 11:58:34;;;;;;;10.93;7.47;;;7.60;99.90;;;;;;5092165;28;20048;-69
2020/12/30 12:01:00;;;;;;;10.68;7.28;;;8.70;99.90;;;;;;5092840;28;20168;-69
2020/12/30 12:03:27;;;;;;;11.48;6.78;;;9.30;99.90;;;;;;5091502;28;20541;-70
2020/12/30 12:05:53;;;;;;;9.10;7.18;;;9.10;99.90;;;;;;5092516;28;20051;-70
2020/12/30 12:08:19;;;;;;;9.50;7.13;;;8.90;99.90;;;;;;5091454;28;20496;-70
2020/12/30 12:10:46;;;;;;;11.00;8.18;;;8.60;99.90;;;;;;5092987;28;20036;-69
2020/12/30 12:13:12;;;;;;;11.85;7.43;;;8.70;99.90;;;;;;5092839;28;20056;-69
2020/12/30 12:15:39;;;;;;;11.75;8.40;;;8.80;99.90;;;;;;5090764;28;20417;-69
2020/12/30 12:18:05;;;;;;;8.85;7.30;;;8.80;99.90;;;;;;5091585;28;20051;-69
2020/12/30 12:20:32;;;;;;;11.50;7.82;;;8.50;99.90;;;;;;5090256;28;20083;-70
2020/12/30 12:23:01;;;;;;;10.73;7.97;;;8.10;99.90;;;;;;5091305;28;20085;-70
2020/12/30 12:25:29;;;;;;;11.35;7.85;;;8.00;99.90;;;;;;5092997;28;20052;-69
2020/12/30 12:27:55;;;;;;;10.00;7.75;;;7.80;99.90;;;;;;5091901;28;20052;-68
2020/12/30 12:30:22;;;;;;;10.50;7.50;;;7.80;99.90;;;;;;5091597;28;20044;-69
2020/12/30 12:32:48;;;;;;;11.40;8.50;;;7.70;99.90;;;;;;5073997;28;20421;-68
2020/12/30 12:35:14;;;;;;;13.18;8.40;;;7.60;99.90;;;;;;5106835;28;20055;-69
2020/12/30 12:38:01;;;;;;;12.13;8.30;;;7.70;99.90;;;;;;5092078;28;20063;-69
2020/12/30 12:40:27;;;;;;;12.20;7.80;;;7.70;99.90;;;;;;5080507;28;20043;-70
2020/12/30 12:42:54;;;;;;;15.23;10.20;;;7.40;99.90;;;;;;5093560;28;20481;-69
2020/12/30 12:45:20;;;;;;;12.60;6.25;;;7.40;99.90;;;;;;5091541;28;20505;-69
2020/12/30 12:47:46;;;;;;;9.80;6.18;;;7.30;99.90;;;;;;5091324;28;20482;-70
2020/12/30 12:50:13;;;;;;;7.93;6.07;;;7.10;99.90;;;;;;5090711;28;20426;-69
2020/12/30 12:52:39;;;;;;;8.40;6.50;;;6.90;99.90;;;;;;5090910;28;20043;-69
2020/12/30 12:55:06;;;;;;;8.38;5.75;;;6.80;99.90;;;;;;5092060;28;20048;-69
2020/12/30 12:57:33;;;;;;;9.52;6.13;;;6.70;99.90;;;;;;5087853;28;20051;-70